createdAt,value
2023-04-16T00:02:20.474Z,41.93
2023-04-16T00:04:49.088Z,42.00
2023-04-16T00:07:18.726Z,42.41
2023-04-16T00:09:47.029Z,42.18
2023-04-16T00:12:15.874Z,42.18
2023-04-16T00:14:44.146Z,42.13
2023-04-16T00:17:12.413Z,42.30
2023-04-16T00:19:40.640Z,42.32
2023-04-16T00:22:09.107Z,42.95
2023-04-16T00:24:38.777Z,42.70
2023-04-16T00:27:07.733Z,42.92
2023-04-16T00:29:36.016Z,42.90
2023-04-16T00:32:04.261Z,42.82
2023-04-16T00:34:32.471Z,42.82
2023-04-16T00:37:01.651Z,43.23
2023-04-16T00:39:30.008Z,43.14
2023-04-16T00:41:59.621Z,43.10
2023-04-16T00:44:27.821Z,43.38
2023-04-16T00:46:57.177Z,43.48
2023-04-16T00:49:25.696Z,43.28
2023-04-16T00:51:53.949Z,43.24
2023-04-16T00:54:22.715Z,43.38
2023-04-16T00:56:52.573Z,43.49
2023-04-16T00:59:22.629Z,43.78
2023-04-16T01:01:50.966Z,43.52
2023-04-16T01:04:19.441Z,43.97
2023-04-16T01:06:47.819Z,44.18
2023-04-16T01:09:16.189Z,44.04
2023-04-16T01:11:44.460Z,43.71
2023-04-16T01:14:12.962Z,43.61
2023-04-16T01:16:42.620Z,44.17
2023-04-16T01:19:11.112Z,44.47
2023-04-16T01:21:41.028Z,44.49
2023-04-16T01:24:09.559Z,43.99
2023-04-16T01:26:37.770Z,44.22
2023-04-16T01:29:06.149Z,44.19
2023-04-16T01:31:34.482Z,44.33
2023-04-16T01:34:06.809Z,44.52
2023-04-16T01:36:36.585Z,44.64
2023-04-16T01:39:06.284Z,44.80
2023-04-16T01:41:34.722Z,45.02
2023-04-16T01:44:03.532Z,45.14
2023-04-16T01:46:34.538Z,44.68
2023-04-16T01:49:03.686Z,45.19
2023-04-16T01:51:32.242Z,45.09
2023-04-16T01:54:00.743Z,44.91
2023-04-16T01:56:30.476Z,45.24
2023-04-16T01:58:58.815Z,45.05
2023-04-16T02:01:31.948Z,45.48
2023-04-16T02:04:00.631Z,44.92
2023-04-16T02:06:28.969Z,45.31
2023-04-16T02:08:57.379Z,44.99
2023-04-16T02:11:26.991Z,45.61
2023-04-16T02:13:57.635Z,45.55
2023-04-16T02:16:26.396Z,45.79
2023-04-16T02:19:00.196Z,45.58
2023-04-16T02:21:32.619Z,45.55
2023-04-16T02:24:01.498Z,45.22
2023-04-16T02:26:32.313Z,45.69
2023-04-16T02:29:08.430Z,45.17
2023-04-16T02:31:43.142Z,45.32
2023-04-16T02:34:12.556Z,45.52
2023-04-16T02:36:40.926Z,45.37
2023-04-16T02:39:09.653Z,45.61
2023-04-16T02:41:38.633Z,45.63
2023-04-16T02:44:08.561Z,45.44
2023-04-16T02:46:36.726Z,46.09
2023-04-16T02:49:04.968Z,45.49
2023-04-16T02:51:33.297Z,45.60
2023-04-16T02:54:03.065Z,46.07
2023-04-16T02:56:32.260Z,46.41
2023-04-16T02:59:00.563Z,46.32
2023-04-16T03:01:30.327Z,46.02
2023-04-16T03:03:58.813Z,46.05
2023-04-16T03:06:27.560Z,46.17
2023-04-16T03:08:55.852Z,46.16
2023-04-16T03:11:24.148Z,46.22
2023-04-16T03:13:52.376Z,46.63
2023-04-16T03:16:20.776Z,46.75
2023-04-16T03:18:50.671Z,46.21
2023-04-16T03:21:19.216Z,46.72
2023-04-16T03:23:47.696Z,46.29
2023-04-16T03:26:16.452Z,46.82
2023-04-16T03:28:44.675Z,46.46
2023-04-16T03:31:13.055Z,46.92
2023-04-16T03:33:41.490Z,46.56
2023-04-16T03:36:11.609Z,46.56
2023-04-16T03:38:39.873Z,47.03
2023-04-16T03:41:09.134Z,46.66
2023-04-16T03:43:38.743Z,47.29
2023-04-16T03:46:07.214Z,46.70
2023-04-16T03:48:36.557Z,47.04
2023-04-16T03:51:05.849Z,46.98
2023-04-16T03:53:36.337Z,47.51
2023-04-16T03:56:04.929Z,47.07
2023-04-16T03:58:33.185Z,47.54
2023-04-16T04:01:01.545Z,47.28
2023-04-16T04:03:30.134Z,47.92
2023-04-16T04:05:58.641Z,48.97
2023-04-16T04:08:30.468Z,51.30
2023-04-16T04:11:00.204Z,52.82
2023-04-16T04:13:29.333Z,53.21
2023-04-16T04:15:58.401Z,52.22
2023-04-16T04:18:28.461Z,51.91
2023-04-16T04:20:57.245Z,52.53
2023-04-16T04:23:29.447Z,52.89
2023-04-16T04:25:59.520Z,52.40
2023-04-16T04:28:27.861Z,50.83
2023-04-16T04:30:56.373Z,50.16
2023-04-16T04:33:24.618Z,49.92
2023-04-16T04:35:53.080Z,49.05
2023-04-16T04:38:25.327Z,49.12
2023-04-16T04:40:54.951Z,48.74
2023-04-16T04:43:26.328Z,48.24
2023-04-16T04:45:54.622Z,48.66
2023-04-16T04:48:26.615Z,47.79
2023-04-16T04:50:56.117Z,48.03
2023-04-16T04:53:25.283Z,47.78
2023-04-16T04:55:55.657Z,47.24
2023-04-16T04:58:27.130Z,47.18
2023-04-16T05:00:55.545Z,47.17
2023-04-16T05:03:23.848Z,47.07
2023-04-16T05:05:52.170Z,46.84
2023-04-16T05:08:20.439Z,46.92
2023-04-16T05:10:48.670Z,46.72
2023-04-16T05:13:16.856Z,46.93
2023-04-16T05:15:46.861Z,46.48
2023-04-16T05:18:15.097Z,46.96
2023-04-16T05:20:43.335Z,46.40
2023-04-16T05:23:11.747Z,46.39
2023-04-16T05:25:39.984Z,46.12
2023-04-16T05:28:08.221Z,46.50
2023-04-16T05:30:36.467Z,47.73
2023-04-16T05:33:06.223Z,47.60
2023-04-16T05:35:35.132Z,46.20
2023-04-16T05:38:04.483Z,46.82
2023-04-16T05:40:32.951Z,46.82
2023-04-16T05:43:01.157Z,47.68
2023-04-16T05:45:29.503Z,46.37
2023-04-16T05:47:57.882Z,45.80
2023-04-16T05:50:27.562Z,45.07
2023-04-16T05:52:55.786Z,44.10
2023-04-16T05:55:23.972Z,43.65
2023-04-16T05:57:52.204Z,43.56
2023-04-16T06:00:20.588Z,43.60
2023-04-16T06:02:48.928Z,43.34
2023-04-16T06:05:17.486Z,42.99
2023-04-16T06:07:47.124Z,42.77
2023-04-16T06:10:15.446Z,42.24
2023-04-16T06:12:43.775Z,42.23
2023-04-16T06:15:12.788Z,41.83
2023-04-16T06:17:41.621Z,42.08
2023-04-16T06:20:10.967Z,41.24
2023-04-16T06:22:39.241Z,41.05
2023-04-16T06:25:10.166Z,41.16
2023-04-16T06:27:38.585Z,40.93
2023-04-16T06:30:12.354Z,40.88
2023-04-16T06:32:40.994Z,40.50
2023-04-16T06:35:10.121Z,40.19
2023-04-16T06:37:38.448Z,40.43
2023-04-16T06:40:09.401Z,40.32
2023-04-16T06:42:37.845Z,39.39
2023-04-16T06:45:07.079Z,39.79
2023-04-16T06:47:35.458Z,39.47
2023-04-16T06:50:03.684Z,39.38
2023-04-16T06:52:32.290Z,39.40
2023-04-16T06:55:00.553Z,38.50
2023-04-16T06:57:30.273Z,37.75
2023-04-16T06:59:58.464Z,38.04
2023-04-16T07:02:26.947Z,38.53
2023-04-16T07:04:55.316Z,38.42
2023-04-16T07:07:23.635Z,38.11
2023-04-16T07:09:52.127Z,37.81
2023-04-16T07:12:22.876Z,37.33
2023-04-16T07:14:52.795Z,37.91
2023-04-16T07:17:21.012Z,37.71
2023-04-16T07:19:49.732Z,38.01
2023-04-16T07:22:18.178Z,37.10
2023-04-16T07:24:46.379Z,37.46
2023-04-16T07:27:14.524Z,37.11
2023-04-16T07:29:42.849Z,36.28
2023-04-16T07:32:15.257Z,36.10
2023-04-16T07:34:44.192Z,36.88
2023-04-16T07:37:12.425Z,36.93
2023-04-16T07:39:40.776Z,36.16
2023-04-16T07:42:09.002Z,36.28
2023-04-16T07:44:37.341Z,35.66
2023-04-16T07:47:05.870Z,35.08
2023-04-16T07:49:35.709Z,34.66
2023-04-16T07:52:03.947Z,34.55
2023-04-16T07:54:32.248Z,34.48
2023-04-16T07:57:00.530Z,33.81
2023-04-16T07:59:29.290Z,33.45
2023-04-16T08:01:58.072Z,33.30
2023-04-16T08:04:26.785Z,33.33
2023-04-16T08:06:56.587Z,32.75
2023-04-16T08:09:28.401Z,32.78
2023-04-16T08:11:56.838Z,32.53
2023-04-16T08:14:25.043Z,32.30
2023-04-16T08:16:53.293Z,32.37
2023-04-16T08:19:21.539Z,32.82
2023-04-16T08:21:49.892Z,32.93
2023-04-16T08:24:19.652Z,32.42
2023-04-16T08:26:47.877Z,32.04
2023-04-16T08:29:16.196Z,32.66
2023-04-16T08:31:44.746Z,32.72
2023-04-16T08:34:13.018Z,33.91
2023-04-16T08:36:41.969Z,33.94
2023-04-16T08:39:10.802Z,33.00
2023-04-16T08:41:44.136Z,33.70
2023-04-16T08:44:18.686Z,33.44
2023-04-16T08:46:48.051Z,33.43
2023-04-16T08:49:19.105Z,33.35
2023-04-16T08:51:55.419Z,33.04
2023-04-16T08:54:33.576Z,33.72
2023-04-16T08:57:07.637Z,33.28
2023-04-16T08:59:36.765Z,33.34
2023-04-16T09:02:06.959Z,33.41
2023-04-16T09:04:35.951Z,33.60
2023-04-16T09:07:07.473Z,33.38
2023-04-16T09:09:36.520Z,33.22
2023-04-16T09:12:06.431Z,34.00
2023-04-16T09:14:36.080Z,33.38
2023-04-16T09:17:05.355Z,33.22
2023-04-16T09:19:33.808Z,32.67
2023-04-16T09:22:02.103Z,32.32
2023-04-16T09:24:31.120Z,32.72
2023-04-16T09:27:00.285Z,31.83
2023-04-16T09:29:42.604Z,30.20
2023-04-16T09:32:12.422Z,29.44
2023-04-16T09:34:57.704Z,28.92
2023-04-16T09:37:29.691Z,29.36
2023-04-16T09:39:59.580Z,29.37
2023-04-16T09:42:29.627Z,29.64
2023-04-16T09:45:01.943Z,29.42
2023-04-16T09:47:41.968Z,29.53
2023-04-16T09:50:12.906Z,29.21
2023-04-16T09:52:43.316Z,29.11
2023-04-16T09:55:11.536Z,29.56
2023-04-16T09:57:39.965Z,30.26
2023-04-16T10:00:11.570Z,30.58
2023-04-16T10:02:42.712Z,30.78
2023-04-16T10:05:16.800Z,31.09
2023-04-16T10:07:45.252Z,30.96
2023-04-16T10:10:14.029Z,31.06
2023-04-16T10:12:43.717Z,31.29
2023-04-16T10:15:13.579Z,30.84
2023-04-16T10:17:42.166Z,30.82
2023-04-16T10:20:11.242Z,30.43
2023-04-16T10:22:39.634Z,30.83
2023-04-16T10:25:09.250Z,30.25
2023-04-16T10:27:38.603Z,29.41
2023-04-16T10:30:08.956Z,28.93
2023-04-16T10:32:39.833Z,28.76
2023-04-16T10:35:08.595Z,28.60
2023-04-16T10:37:39.069Z,28.17
2023-04-16T10:40:25.464Z,27.24
2023-04-16T10:42:58.299Z,27.35
2023-04-16T10:45:33.601Z,27.33
2023-04-16T10:48:06.101Z,27.29
2023-04-16T10:50:37.790Z,26.86
2023-04-16T10:53:19.281Z,26.98
2023-04-16T10:56:13.118Z,27.09
2023-04-16T10:58:41.487Z,26.81
2023-04-16T11:01:14.128Z,27.00
2023-04-16T11:03:45.475Z,27.21
2023-04-16T11:06:16.748Z,26.72
2023-04-16T11:08:54.412Z,26.61
2023-04-16T11:11:23.954Z,26.80
2023-04-16T11:13:57.070Z,26.27
2023-04-16T11:16:26.440Z,26.53
2023-04-16T11:19:07.845Z,25.92
2023-04-16T11:21:37.145Z,25.97
2023-04-16T11:24:05.535Z,25.96
2023-04-16T11:26:33.837Z,25.90
2023-04-16T11:29:02.480Z,25.72
2023-04-16T11:31:30.896Z,26.52
2023-04-16T11:34:01.032Z,26.91
2023-04-16T11:36:29.360Z,26.31
2023-04-16T11:39:04.102Z,27.12
2023-04-16T11:41:32.428Z,28.23
2023-04-16T11:44:00.649Z,27.17
2023-04-16T11:46:40.662Z,26.81
2023-04-16T11:49:11.084Z,26.14
2023-04-16T11:51:43.282Z,26.25
2023-04-16T11:54:19.289Z,26.00
2023-04-16T11:56:49.032Z,25.91
2023-04-16T11:59:19.188Z,25.27
2023-04-16T12:01:49.458Z,25.39
2023-04-16T12:04:22.313Z,25.67
2023-04-16T12:07:05.841Z,25.74
2023-04-16T12:09:36.098Z,25.36
2023-04-16T12:12:06.863Z,25.30
2023-04-16T12:14:35.450Z,24.76
2023-04-16T12:17:20.819Z,24.87
2023-04-16T12:19:56.797Z,24.38
2023-04-16T12:22:29.869Z,24.68
2023-04-16T12:25:02.903Z,25.06
2023-04-16T12:27:46.643Z,25.04
2023-04-16T12:30:16.380Z,24.89
2023-04-16T12:32:46.183Z,25.76
2023-04-16T12:35:30.569Z,25.70
2023-04-16T12:37:59.031Z,26.03
2023-04-16T12:40:27.601Z,25.26
2023-04-16T12:42:56.090Z,25.34
2023-04-16T12:45:24.323Z,25.39
2023-04-16T12:47:52.906Z,25.69
2023-04-16T12:50:22.722Z,24.40
2023-04-16T12:52:51.688Z,23.91
2023-04-16T12:55:20.734Z,24.09
2023-04-16T12:57:49.947Z,23.90
2023-04-16T13:00:18.548Z,23.80
2023-04-16T13:02:47.025Z,23.90
2023-04-16T13:05:16.711Z,24.36
2023-04-16T13:07:46.593Z,23.88
2023-04-16T13:10:15.021Z,23.39
2023-04-16T13:12:43.490Z,23.45
2023-04-16T13:15:12.550Z,23.62
2023-04-16T13:17:40.971Z,23.00
2023-04-16T13:20:10.171Z,22.25
2023-04-16T13:22:38.552Z,22.80
2023-04-16T13:25:09.920Z,23.19
2023-04-16T13:27:38.332Z,23.45
2023-04-16T13:30:07.811Z,23.47
2023-04-16T13:32:36.375Z,23.84
2023-04-16T13:35:04.887Z,24.26
2023-04-16T13:37:33.615Z,24.64
2023-04-16T13:40:01.929Z,24.76
2023-04-16T13:42:33.762Z,24.67
2023-04-16T13:45:02.165Z,24.35
2023-04-16T13:47:32.653Z,24.50
2023-04-16T13:50:01.057Z,24.88
2023-04-16T13:52:29.379Z,25.17
2023-04-16T13:54:59.638Z,24.83
2023-04-16T13:57:29.222Z,25.05
2023-04-16T13:59:59.189Z,25.29
2023-04-16T14:02:27.871Z,25.04
2023-04-16T14:04:56.134Z,25.34
2023-04-16T14:07:27.100Z,25.39
2023-04-16T14:09:55.494Z,25.60
2023-04-16T14:12:23.855Z,25.88
2023-04-16T14:14:52.186Z,25.86
2023-04-16T14:17:21.958Z,25.33
2023-04-16T14:19:50.394Z,25.49
2023-04-16T14:22:18.642Z,24.98
2023-04-16T14:24:46.946Z,25.75
2023-04-16T14:27:15.296Z,25.34
2023-04-16T14:29:44.407Z,25.46
2023-04-16T14:32:12.821Z,25.52
2023-04-16T14:34:42.755Z,25.95
2023-04-16T14:37:11.167Z,25.65
2023-04-16T14:39:39.823Z,25.51
2023-04-16T14:42:08.062Z,26.13
2023-04-16T14:44:36.326Z,26.07
2023-04-16T14:47:04.646Z,26.48
2023-04-16T14:49:33.298Z,26.19
2023-04-16T14:52:05.574Z,26.17
2023-04-16T14:54:34.383Z,26.05
2023-04-16T14:57:03.512Z,26.20
2023-04-16T14:59:32.414Z,26.11
2023-04-16T15:02:01.135Z,26.35
2023-04-16T15:04:31.023Z,26.67
2023-04-16T15:06:59.393Z,27.32
2023-04-16T15:09:29.196Z,27.73
2023-04-16T15:11:58.158Z,27.90
2023-04-16T15:14:26.553Z,27.64
2023-04-16T15:16:55.031Z,28.95
2023-04-16T15:19:23.342Z,30.14
2023-04-16T15:21:51.717Z,30.54
2023-04-16T15:24:20.368Z,29.27
2023-04-16T15:26:49.943Z,28.39
2023-04-16T15:29:18.231Z,28.01
2023-04-16T15:31:46.615Z,27.57
2023-04-16T15:34:15.161Z,27.74
2023-04-16T15:36:43.467Z,28.05
2023-04-16T15:39:12.279Z,27.68
2023-04-16T15:41:53.583Z,27.96
2023-04-16T15:44:29.449Z,27.67
2023-04-16T15:46:57.645Z,27.85
2023-04-16T15:49:26.209Z,28.03
2023-04-16T15:51:54.745Z,28.02
2023-04-16T15:54:23.113Z,28.03
2023-04-16T15:56:51.598Z,28.34
2023-04-16T15:59:20.086Z,28.68
2023-04-16T16:01:49.837Z,28.42
2023-04-16T16:04:18.433Z,28.25
2023-04-16T16:06:46.742Z,28.58
2023-04-16T16:09:15.005Z,28.63
2023-04-16T16:11:43.228Z,28.77
2023-04-16T16:14:11.786Z,29.29
2023-04-16T16:16:40.253Z,29.35
2023-04-16T16:19:10.132Z,29.73
2023-04-16T16:21:38.668Z,29.30
2023-04-16T16:24:07.759Z,29.68
2023-04-16T16:26:35.994Z,29.47
2023-04-16T16:29:04.713Z,29.75
2023-04-16T16:31:33.069Z,29.91
2023-04-16T16:34:01.652Z,30.41
2023-04-16T16:36:32.444Z,30.70
2023-04-16T16:39:00.711Z,30.46
2023-04-16T16:41:28.930Z,30.17
2023-04-16T16:43:58.745Z,30.11
2023-04-16T16:46:27.034Z,29.97
2023-04-16T16:48:55.325Z,30.96
2023-04-16T16:51:23.733Z,31.29
2023-04-16T16:53:54.169Z,30.65
2023-04-16T16:56:23.014Z,30.34
2023-04-16T16:58:51.307Z,30.32
2023-04-16T17:01:19.702Z,30.17
2023-04-16T17:03:48.116Z,31.46
2023-04-16T17:06:16.713Z,32.61
2023-04-16T17:08:45.411Z,32.21
2023-04-16T17:11:18.265Z,31.68
2023-04-16T17:13:49.253Z,32.25
2023-04-16T17:16:19.190Z,32.69
2023-04-16T17:18:47.606Z,32.92
2023-04-16T17:21:16.830Z,32.98
2023-04-16T17:23:45.489Z,32.64
2023-04-16T17:26:13.686Z,32.76
2023-04-16T17:28:45.383Z,33.43
2023-04-16T17:31:16.760Z,34.00
2023-04-16T17:33:45.327Z,33.44
2023-04-16T17:36:14.133Z,34.23
2023-04-16T17:38:44.761Z,35.13
2023-04-16T17:41:13.347Z,35.03
2023-04-16T17:43:41.596Z,35.07
2023-04-16T17:46:12.578Z,35.76
2023-04-16T17:48:41.156Z,36.19
2023-04-16T17:51:12.931Z,37.17
2023-04-16T17:53:42.679Z,37.09
2023-04-16T17:56:11.302Z,37.76
2023-04-16T17:58:39.534Z,39.21
2023-04-16T18:01:07.861Z,41.24
2023-04-16T18:03:38.465Z,41.02
2023-04-16T18:06:07.259Z,40.60
2023-04-16T18:08:36.985Z,40.28
2023-04-16T18:11:11.009Z,38.89
2023-04-16T18:13:39.677Z,37.72
2023-04-16T18:16:14.909Z,37.64
2023-04-16T18:18:44.872Z,37.19
2023-04-16T18:21:13.304Z,37.03
2023-04-16T18:23:41.563Z,37.72
2023-04-16T18:26:11.070Z,37.99
2023-04-16T18:28:39.541Z,38.10
2023-04-16T18:31:08.084Z,38.53
2023-04-16T18:33:54.172Z,38.97
2023-04-16T18:36:26.658Z,39.54
2023-04-16T18:41:27.742Z,39.86
2023-04-16T18:43:55.976Z,39.61
2023-04-16T18:46:25.320Z,40.05
2023-04-16T18:48:58.316Z,40.58
2023-04-16T18:51:28.357Z,41.19
2023-04-16T18:53:56.814Z,41.80
2023-04-16T18:56:25.164Z,42.09
2023-04-16T18:58:53.480Z,42.57
2023-04-16T19:01:26.848Z,42.52
2023-04-16T19:03:56.212Z,43.02
2023-04-16T19:06:24.486Z,42.42
2023-04-16T19:08:57.183Z,42.98
2023-04-16T19:11:25.627Z,42.71
2023-04-16T19:13:53.900Z,42.98
2023-04-16T19:16:22.314Z,43.94
2023-04-16T19:18:50.873Z,45.02
2023-04-16T19:21:19.226Z,45.63
2023-04-16T19:23:48.258Z,45.32
2023-04-16T19:26:18.087Z,45.94
2023-04-16T19:28:46.917Z,45.96
2023-04-16T19:31:15.341Z,47.22
2023-04-16T19:33:43.610Z,46.68
2023-04-16T19:36:11.822Z,46.94
2023-04-16T19:38:40.228Z,46.68
2023-04-16T19:41:08.489Z,46.00
2023-04-16T19:43:38.166Z,45.78
2023-04-16T19:46:06.588Z,45.42
2023-04-16T19:48:34.787Z,45.59
2023-04-16T19:51:04.056Z,45.88
2023-04-16T19:53:32.436Z,46.39
2023-04-16T19:56:00.624Z,47.00
2023-04-16T19:58:28.842Z,47.01
2023-04-16T20:00:58.560Z,46.83
2023-04-16T20:03:26.888Z,47.51
2023-04-16T20:05:55.173Z,48.07
2023-04-16T20:08:23.523Z,47.17
2023-04-16T20:10:54.430Z,47.68
2023-04-16T20:13:22.901Z,47.82
2023-04-16T20:15:53.224Z,48.04
2023-04-16T20:18:22.895Z,48.50
2023-04-16T20:20:51.091Z,49.47
2023-04-16T20:23:21.904Z,49.68
2023-04-16T20:25:50.152Z,49.86
2023-04-16T20:28:21.445Z,49.07
2023-04-16T20:30:51.067Z,49.23
2023-04-16T20:33:23.837Z,48.83
2023-04-16T20:35:52.350Z,48.06
2023-04-16T20:38:23.929Z,48.05
2023-04-16T20:41:06.653Z,47.99
2023-04-16T20:43:41.113Z,47.89
2023-04-16T20:46:09.907Z,48.94
2023-04-16T20:48:40.188Z,48.69
2023-04-16T20:51:09.516Z,48.87
2023-04-16T20:53:38.174Z,48.58
2023-04-16T20:56:09.210Z,48.38
2023-04-16T20:58:37.553Z,48.60
2023-04-16T21:01:06.181Z,48.60
2023-04-16T21:03:34.972Z,48.82
2023-04-16T21:06:05.155Z,48.70
2023-04-16T21:08:33.625Z,48.76
2023-04-16T21:11:01.876Z,48.81
2023-04-16T21:13:30.251Z,48.70
2023-04-16T21:15:58.562Z,48.49
2023-04-16T21:18:26.885Z,48.44
2023-04-16T21:20:55.181Z,47.86
2023-04-16T21:23:25.036Z,47.81
2023-04-16T21:25:53.283Z,47.93
2023-04-16T21:28:21.480Z,48.08
2023-04-16T21:30:52.350Z,47.99
2023-04-16T21:33:20.920Z,47.95
2023-04-16T21:35:52.795Z,47.86
2023-04-16T21:38:21.856Z,48.20
2023-04-16T21:40:54.060Z,47.81
2023-04-16T21:43:22.793Z,48.23
2023-04-16T21:45:53.756Z,48.15
2023-04-16T21:48:22.016Z,47.92
2023-04-16T21:50:56.164Z,48.02
2023-04-16T21:53:24.470Z,48.26
2023-04-16T21:55:55.451Z,48.89
2023-04-16T21:58:24.498Z,49.34
2023-04-16T22:00:52.952Z,49.54
2023-04-16T22:03:26.359Z,50.15
2023-04-16T22:06:00.726Z,50.64
2023-04-16T22:08:29.628Z,51.07
2023-04-16T22:11:00.172Z,51.29
2023-04-16T22:13:32.471Z,51.36
2023-04-16T22:16:02.472Z,51.63
2023-04-16T22:18:32.954Z,51.61
2023-04-16T22:21:02.195Z,52.62
2023-04-16T22:23:30.412Z,53.07
2023-04-16T22:26:00.172Z,53.32
2023-04-16T22:28:28.367Z,53.54
2023-04-16T22:30:57.418Z,53.50
2023-04-16T22:33:25.909Z,53.91
2023-04-16T22:35:54.101Z,53.72
2023-04-16T22:38:22.635Z,53.82
2023-04-16T22:40:51.122Z,54.88
2023-04-16T22:43:20.719Z,55.41
2023-04-16T22:45:49.022Z,55.47
2023-04-16T22:48:17.885Z,56.36
2023-04-16T22:50:51.051Z,57.01
2023-04-16T22:53:19.419Z,57.52
2023-04-16T22:55:47.689Z,57.87
2023-04-16T22:58:17.050Z,57.75
2023-04-16T23:00:47.684Z,58.21
2023-04-16T23:03:16.305Z,58.34
2023-04-16T23:05:44.659Z,58.25
2023-04-16T23:08:12.922Z,57.82
2023-04-16T23:10:41.193Z,58.14
2023-04-16T23:13:11.588Z,58.61
2023-04-16T23:15:39.883Z,58.13
2023-04-16T23:18:09.647Z,58.52
2023-04-16T23:20:37.963Z,59.72
2023-04-16T23:23:06.259Z,60.58
2023-04-16T23:25:34.470Z,61.85
2023-04-16T23:28:02.682Z,61.84
2023-04-16T23:30:30.946Z,61.96
2023-04-16T23:32:59.198Z,61.69
2023-04-16T23:35:28.881Z,61.42
2023-04-16T23:37:57.295Z,61.25
2023-04-16T23:40:25.733Z,61.24
2023-04-16T23:42:53.879Z,61.41
2023-04-16T23:45:22.846Z,61.67
2023-04-16T23:47:51.850Z,62.36
2023-04-16T23:50:20.236Z,62.49
2023-04-16T23:52:49.918Z,63.30
2023-04-16T23:55:18.256Z,63.57
2023-04-16T23:57:46.738Z,63.42
